TAF Switzerland - 12 Dec 2017 - 2347 UTC - RocketRoute WX - rrwx.com
LSMA   LFSB 121700Z 1218/1318 20004KT 9999 FEW030 BECMG 1312/1314 22010KT BKN030 TEMPO 1314/1318 -RA LSZB 121425Z 1215/1224 VRB03KT 9999 FEW010 BKN020 TEMPO 1215/1220 2500 -SHSN BKN009 LSZC 121425Z 1215/1224 VRB03KT 9999 BKN015 PROB40 TEMPO 1215/1219 4000 -SNRA BKN010 LSMD   LSME   LSZR 121425Z 1215/1224 10005KT 9999 FEW020 BKN035 TEMPO 1215/1222 4500 -SN BKN013 LSGG 122025Z 1221/1403 VRB03KT CAVOK TX04/1315Z TNM04/1306Z PROB30 TEMPO 1305/1309 0600 FZFG VV003 BECMG 1309/1311 23010KT 9999 SCT140 TEMPO 1315/1403 24015G25KT PROB40 TEMPO 1318/1403 4500 RA LSZG 121425Z 1215/1224 24004KT 9999 SCT015 BKN025 LSGC 121425Z 1215/1224 24007KT 9999 FEW010 BKN030 BECMG 1219/1221 CAVOK LSZL 121725Z 1218/1303 08005KT 5000 BR SCT100 PROB30 TEMPO 1221/1224 1200 BCFG BKN004 LSZA 121425Z 1215/1224 VRB03KT 9999 SCT045 BKN160 LSMM   LSMP   LSZS 121425Z 1215/1224 21006KT 9999 SCT020 BKN035 TX00/1215Z PROB40 TEMPO 1215/1224 2500 -SN BKN014 LSGS 121425Z 1215/1224 VRB03KT 9999 SCT015 BKN080 BECMG 1218/1221 CAVOK LSZH AMD 122117Z 1221/1403 VRB03KT CAVOK TX04/1314Z TNM03/1306Z BECMG 1221/1301 3000 MIFG NSC PROB40 TEMPO 1303/1309 0300 FZFG VV001 BECMG 1307/1309 CAVOK BECMG 1311/1314 23006KT 9999 SCT025 BKN035 TEMPO 1314/1403 5000 -SHRA BKN013

RocketRoute WX - rrwx.com weather for pilots